createdAt,value
2019-04-18T00:07:34.144Z,99.99
2019-04-18T00:18:35.624Z,99.99
2019-04-18T00:29:40.935Z,99.99
2019-04-18T00:40:40.783Z,99.99
2019-04-18T00:51:44.336Z,99.99
2019-04-18T01:02:51.556Z,99.99
2019-04-18T01:13:52.867Z,99.99
2019-04-18T01:24:51.880Z,99.99
2019-04-18T01:35:55.265Z,99.99
2019-04-18T01:46:57.023Z,99.99
2019-04-18T01:57:57.030Z,99.99
2019-04-18T02:09:02.541Z,99.99
2019-04-18T02:20:04.144Z,99.99
2019-04-18T02:31:06.167Z,99.99
2019-04-18T02:42:07.443Z,99.99
2019-04-18T02:53:03.717Z,99.99
2019-04-18T03:04:05.759Z,99.99
2019-04-18T03:15:03.933Z,99.99
2019-04-18T03:26:05.810Z,99.99
2019-04-18T03:37:08.183Z,99.99
2019-04-18T03:48:09.813Z,99.99
2019-04-18T03:59:18.578Z,99.99
2019-04-18T04:10:19.304Z,99.99
2019-04-18T04:21:20.707Z,99.99
2019-04-18T04:32:28.882Z,99.99
2019-04-18T04:43:30.984Z,99.99
2019-04-18T04:54:32.067Z,99.99
2019-04-18T05:05:32.179Z,99.99
2019-04-18T05:16:30.195Z,99.99
2019-04-18T05:27:30.462Z,99.99
2019-04-18T05:38:32.373Z,99.99
2019-04-18T05:49:35.964Z,99.99
2019-04-18T06:00:34.162Z,99.99
2019-04-18T06:11:35.245Z,99.99
2019-04-18T06:22:31.756Z,99.99
2019-04-18T06:33:36.188Z,99.99
2019-04-18T06:44:35.280Z,99.99
2019-04-18T06:55:36.442Z,99.99
2019-04-18T07:06:35.821Z,99.99
2019-04-18T07:17:33.883Z,99.99
2019-04-18T07:28:48.468Z,99.99
2019-04-18T07:39:42.448Z,99.99
2019-04-18T07:50:45.641Z,99.99
2019-04-18T08:01:46.440Z,99.99
2019-04-18T08:12:49.458Z,99.99
2019-04-18T08:23:51.495Z,99.99
2019-04-18T08:34:56.351Z,99.99
2019-04-18T08:45:55.303Z,99.99
2019-04-18T08:56:47.631Z,99.99
2019-04-18T09:07:51.678Z,99.99
2019-04-18T09:18:50.748Z,99.99
2019-04-18T09:29:54.230Z,99.99
2019-04-18T09:40:55.172Z,99.95
2019-04-18T09:51:58.682Z,99.99
2019-04-18T10:03:02.595Z,97.15
2019-04-18T10:14:01.434Z,99.66
2019-04-18T10:25:04.674Z,94.02
2019-04-18T10:36:01.878Z,96.59
2019-04-18T10:46:56.627Z,98.99
2019-04-18T10:57:59.203Z,94.82
2019-04-18T11:08:57.753Z,94.76
2019-04-18T11:19:54.078Z,88.36
2019-04-18T11:30:59.194Z,84.51
2019-04-18T11:41:58.075Z,81.77
2019-04-18T11:52:52.682Z,72.67
2019-04-18T12:03:50.499Z,75.96
2019-04-18T12:14:43.461Z,84.61
2019-04-18T12:25:45.108Z,81.23
2019-04-18T12:36:47.837Z,84.65
2019-04-18T12:47:45.866Z,78.22
2019-04-18T12:58:49.301Z,75.37
2019-04-18T13:09:50.368Z,71.11
2019-04-18T13:20:48.230Z,74.27
2019-04-18T13:32:02.027Z,70.68
2019-04-18T13:42:57.469Z,69.72
2019-04-18T13:53:58.077Z,75.16
2019-04-18T14:05:03.029Z,69.53
2019-04-18T14:15:43.717Z,68.46
2019-04-18T14:26:28.524Z,68.50
2019-04-18T14:37:32.996Z,67.94
2019-04-18T14:48:26.270Z,71.95
2019-04-18T14:59:19.959Z,78.43
2019-04-18T15:10:18.990Z,80.46
2019-04-18T15:21:34.565Z,73.61
2019-04-18T15:32:39.144Z,72.88
2019-04-18T15:43:31.302Z,75.20
2019-04-18T15:54:34.071Z,74.90
2019-04-18T16:05:21.825Z,77.72
2019-04-18T16:16:19.820Z,79.05
2019-04-18T16:27:18.277Z,79.93
2019-04-18T16:38:19.032Z,80.47
2019-04-18T16:49:16.377Z,81.52
2019-04-18T17:00:14.753Z,86.22
2019-04-18T17:11:16.858Z,89.93
2019-04-18T17:22:12.933Z,88.56
2019-04-18T17:33:15.152Z,90.36
2019-04-18T17:44:11.826Z,92.46
2019-04-18T17:55:25.053Z,99.82
2019-04-18T18:06:19.295Z,99.99
2019-04-18T18:17:20.681Z,99.99
2019-04-18T18:28:22.125Z,99.99
2019-04-18T18:39:28.380Z,99.99
2019-04-18T18:50:25.908Z,99.99
2019-04-18T19:01:23.469Z,99.99
2019-04-18T19:12:25.211Z,99.99
2019-04-18T19:23:25.593Z,99.99
2019-04-18T19:34:28.707Z,99.99
2019-04-18T19:45:24.058Z,99.99
2019-04-18T19:56:23.584Z,99.99
2019-04-18T20:07:36.290Z,99.99
2019-04-18T20:18:27.336Z,99.99
2019-04-18T20:29:36.239Z,99.99
2019-04-18T20:40:59.791Z,99.99
2019-04-18T20:51:51.377Z,99.99
2019-04-18T21:02:47.997Z,99.99
2019-04-18T21:13:49.612Z,99.99
2019-04-18T21:24:45.995Z,99.99
2019-04-18T21:35:46.895Z,99.99
2019-04-18T21:46:49.811Z,99.99
2019-04-18T21:57:51.333Z,99.99
2019-04-18T22:08:58.080Z,99.99
2019-04-18T22:19:57.797Z,99.99
2019-04-18T22:31:00.426Z,99.99
2019-04-18T22:41:58.676Z,99.99
2019-04-18T22:52:59.072Z,99.99
2019-04-18T23:04:12.994Z,99.99
2019-04-18T23:15:09.072Z,99.99
2019-04-18T23:26:13.311Z,99.99
2019-04-18T23:37:20.593Z,99.99
2019-04-18T23:48:35.949Z,99.99
2019-04-18T23:59:39.617Z,99.99
